Time;durP1;ratioP1;P1;durP2;ratioP2;P2;SDS_P1;SDS_P2;PMS_P1;PMS_P2;Temp;Humidity;BMP_temperature;BMP_pressure;BME280_temperature;BME280_humidity;BME280_pressure;Samples;Min_cycle;Max_cycle;Signal;HPM_P1;HPM_P2
2022/04/10 00:00:40;;;;;;;14.65;2.40;;;;;;;;;;5075214;28;20444;-55
2022/04/10 00:03:06;;;;;;;13.30;2.25;;;;;;;;;;5074488;28;20465;-55
2022/04/10 00:05:32;;;;;;;17.55;2.50;;;;;;;;;;5072963;28;20036;-55
2022/04/10 00:08:00;;;;;;;17.85;2.22;;;2.60;99.90;;;;;;5074277;28;20039;-55
2022/04/10 00:10:26;;;;;;;15.00;2.40;;;;;;;;;;5074564;28;20070;-55
2022/04/10 00:12:52;;;;;;;22.40;4.93;;;;;;;;;;5072704;28;20044;-55
2022/04/10 00:15:18;;;;;;;18.35;3.60;;;;;;;;;;5072925;28;20157;-54
2022/04/10 00:17:44;;;;;;;12.88;2.13;;;;;;;;;;5071523;28;20075;-56
2022/04/10 00:20:11;;;;;;;18.02;3.15;;;;;;;;;;5074022;28;20043;-56
2022/04/10 00:22:45;;;;;;;18.75;2.78;;;2.50;99.90;;;;;;5073895;28;20051;-53
2022/04/10 00:25:12;;;;;;;16.77;3.15;;;2.50;99.90;;;;;;5073523;28;20492;-55
2022/04/10 00:27:39;;;;;;;17.88;3.88;;;;;;;;;;5073251;28;20461;-55
2022/04/10 00:30:06;;;;;;;9.85;2.05;;;2.50;99.90;;;;;;5074705;28;20913;-57
2022/04/10 00:32:32;;;;;;;15.27;2.13;;;;;;;;;;5074535;28;20040;-55
2022/04/10 00:35:00;;;;;;;17.60;2.60;;;2.60;99.90;;;;;;5072546;28;20051;-56
2022/04/10 00:37:26;;;;;;;17.50;2.72;;;2.50;99.90;;;;;;5073527;28;20040;-54
2022/04/10 00:39:52;;;;;;;15.73;3.03;;;;;;;;;;5072488;28;20036;-56
2022/04/10 00:42:20;;;;;;;17.95;2.50;;;2.70;99.90;;;;;;5074113;28;20093;-56
2022/04/10 00:44:47;;;;;;;13.25;2.30;;;;;;;;;;5072789;28;20554;-55
2022/04/10 00:47:13;;;;;;;18.85;3.10;;;;;;;;;;5072902;28;20036;-55
2022/04/10 00:49:41;;;;;;;15.52;2.50;;;2.50;99.90;;;;;;5072959;28;20089;-56
2022/04/10 00:52:08;;;;;;;21.77;2.78;;;2.60;99.90;;;;;;5073341;28;20398;-55
2022/04/10 00:54:34;;;;;;;9.45;2.35;;;;;;;;;;5073566;28;20036;-55
2022/04/10 00:57:02;;;;;;;17.02;2.42;;;2.60;99.90;;;;;;5073914;28;20063;-54
2022/04/10 00:59:30;;;;;;;20.00;2.40;;;2.70;99.90;;;;;;5073088;28;20032;-56
2022/04/10 01:01:56;;;;;;;16.13;2.60;;;;;;;;;;5074888;28;20040;-53
2022/04/10 01:04:22;;;;;;;15.18;2.40;;;;;;;;;;5074585;28;20032;-55
2022/04/10 01:06:51;;;;;;;13.60;2.38;;;2.50;99.90;;;;;;5072735;28;20067;-55
2022/04/10 01:09:17;;;;;;;16.67;3.10;;;;;;;;;;5073893;28;20035;-54
2022/04/10 01:11:43;;;;;;;15.95;3.13;;;;;;;;;;5073078;28;22060;-53
2022/04/10 01:14:09;;;;;;;15.52;3.35;;;;;;;;;;5074253;28;20059;-56
2022/04/10 01:16:36;;;;;;;16.85;2.40;;;;;;;;;;5074383;28;20040;-51
2022/04/10 01:19:04;;;;;;;14.07;2.40;;;2.40;99.90;;;;;;5072369;28;20047;-56
2022/04/10 01:21:33;;;;;;;11.80;2.63;;;2.50;99.90;;;;;;5072573;28;20044;-56
2022/04/10 01:23:59;;;;;;;19.02;2.70;;;2.40;99.90;;;;;;5054855;28;20040;-57
2022/04/10 01:26:26;;;;;;;16.63;3.75;;;2.40;99.90;;;;;;5051758;28;20130;-53
2022/04/10 01:29:07;;;;;;;11.70;2.53;;;2.30;99.90;;;;;;5073840;28;20051;-52
2022/04/10 01:31:38;;;;;;;17.50;3.53;;;2.40;99.90;;;;;;5073577;28;20511;-56
2022/04/10 01:34:07;;;;;;;17.52;2.45;;;2.20;99.90;;;;;;5072436;28;20134;-55
2022/04/10 01:36:33;;;;;;;17.42;2.50;;;2.40;99.90;;;;;;5073391;28;20082;-54
2022/04/10 01:39:01;;;;;;;21.67;3.75;;;2.40;99.90;;;;;;5071994;28;20070;-55
2022/04/10 01:41:27;;;;;;;22.88;3.88;;;2.40;99.90;;;;;;5053368;28;20811;-55
2022/04/10 01:43:55;;;;;;;16.17;2.58;;;2.30;99.90;;;;;;5071118;28;20101;-54
2022/04/10 01:46:23;;;;;;;17.30;2.40;;;2.30;99.90;;;;;;5072954;28;20416;-56
2022/04/10 01:48:49;;;;;;;16.15;3.20;;;;;;;;;;5072537;28;20051;-54
2022/04/10 01:51:16;;;;;;;18.13;3.08;;;;;;;;;;5071556;28;20047;-52
2022/04/10 01:53:42;;;;;;;18.80;3.28;;;;;;;;;;5071845;28;20051;-55
2022/04/10 01:56:09;;;;;;;14.23;3.03;;;2.20;99.90;;;;;;5072912;28;20052;-54
2022/04/10 01:58:46;;;;;;;10.88;2.20;;;2.20;99.90;;;;;;5071305;28;20040;-56
2022/04/10 02:01:14;;;;;;;24.08;4.22;;;2.30;99.90;;;;;;5072497;28;20076;-56
2022/04/10 02:03:40;;;;;;;17.40;3.03;;;;;;;;;;5072104;28;20123;-54
2022/04/10 02:06:07;;;;;;;16.35;2.20;;;2.10;99.90;;;;;;5071141;28;20276;-55
2022/04/10 02:08:35;;;;;;;15.55;2.63;;;;;;;;;;5070766;28;20086;-55
2022/04/10 02:11:01;;;;;;;14.68;2.08;;;;;;;;;;5071803;28;20056;-56
2022/04/10 02:13:27;;;;;;;16.45;4.05;;;;;;;;;;5071353;28;20059;-55
2022/04/10 02:15:56;;;;;;;11.95;2.72;;;2.10;99.90;;;;;;5069889;28;20645;-55
2022/04/10 02:18:22;;;;;;;15.25;2.50;;;;;;;;;;5070391;28;20645;-55
2022/04/10 02:20:48;;;;;;;11.02;2.35;;;;;;;;;;5072202;28;20036;-55
2022/04/10 02:23:14;;;;;;;18.45;2.85;;;;;;;;;;5071093;28;20063;-53
2022/04/10 02:25:40;;;;;;;13.23;2.88;;;;;;;;;;5071525;28;20036;-56
2022/04/10 02:28:06;;;;;;;13.52;2.58;;;;;;;;;;5071693;28;20696;-56
2022/04/10 02:30:32;;;;;;;13.93;2.42;;;;;;;;;;5073421;28;20044;-56
2022/04/10 02:32:58;;;;;;;16.25;2.75;;;;;;;;;;5074231;28;20108;-56
2022/04/10 02:35:24;;;;;;;12.60;3.45;;;;;;;;;;5072310;28;20518;-55
2022/04/10 02:37:52;;;;;;;14.48;2.25;;;2.20;99.90;;;;;;5072823;28;20122;-52
2022/04/10 02:40:20;;;;;;;12.25;2.53;;;2.10;99.90;;;;;;5072335;28;20207;-54
2022/04/10 02:42:46;;;;;;;18.00;2.60;;;;;;;;;;5072415;28;20512;-55
2022/04/10 02:45:12;;;;;;;19.67;2.72;;;;;;;;;;5071952;28;20040;-55
2022/04/10 02:47:39;;;;;;;15.13;2.10;;;;;;;;;;5072270;28;20040;-55
2022/04/10 02:50:05;;;;;;;9.43;2.03;;;2.20;99.90;;;;;;5071757;28;20063;-55
2022/04/10 02:52:31;;;;;;;17.50;3.05;;;;;;;;;;5070585;28;20036;-55
2022/04/10 02:54:59;;;;;;;9.80;1.70;;;2.40;99.90;;;;;;5071518;28;20043;-56
2022/04/10 02:57:25;;;;;;;15.50;3.67;;;;;;;;;;5071734;28;20044;-53
2022/04/10 02:59:51;;;;;;;7.47;1.70;;;;;;;;;;5053649;28;20042;-54
2022/04/10 03:02:20;;;;;;;25.25;2.92;;;2.50;99.90;;;;;;5072005;28;20142;-55
2022/04/10 03:04:46;;;;;;;8.52;1.50;;;;;;;;;;5052088;28;20063;-56
2022/04/10 03:07:12;;;;;;;7.20;1.20;;;;;;;;;;5053647;28;20545;-55
2022/04/10 03:09:38;;;;;;;7.88;1.50;;;;;;;;;;5053085;28;20090;-54
2022/04/10 03:12:05;;;;;;;4.90;1.20;;;2.70;99.90;;;;;;5069490;28;20233;-54
2022/04/10 03:14:31;;;;;;;9.50;2.13;;;;;;;;;;5070636;28;20055;-52
2022/04/10 03:16:57;;;;;;;5.35;1.30;;;;;;;;;;5070952;28;20185;-54
2022/04/10 03:19:26;;;;;;;7.22;1.60;;;2.90;99.90;;;;;;5070190;28;20036;-52
2022/04/10 03:21:52;;;;;;;9.02;1.13;;;;;;;;;;5069668;28;20028;-52
2022/04/10 03:24:18;;;;;;;6.85;1.30;;;;;;;;;;5070946;28;20112;-55
2022/04/10 03:26:46;;;;;;;6.53;1.40;;;3.10;99.90;;;;;;5071370;28;20040;-55
2022/04/10 03:29:14;;;;;;;10.32;1.27;;;3.00;99.90;;;;;;5070111;28;20036;-53
2022/04/10 03:31:40;;;;;;;5.47;1.17;;;;;;;;;;5071929;28;20089;-55
2022/04/10 03:34:06;;;;;;;9.93;1.75;;;;;;;;;;5071053;28;20149;-55
2022/04/10 03:36:32;;;;;;;8.73;2.10;;;;;;;;;;5071548;28;20068;-55
2022/04/10 03:38:58;;;;;;;7.43;1.38;;;;;;;;;;5071283;28;20500;-53
2022/04/10 03:41:24;;;;;;;4.95;1.52;;;;;;;;;;5071264;28;20043;-53
2022/04/10 03:43:52;;;;;;;5.88;1.10;;;2.60;99.90;;;;;;5072137;28;20040;-53
2022/04/10 03:46:18;;;;;;;10.25;1.30;;;;;;;;;;5072181;28;20050;-53
2022/04/10 03:48:44;;;;;;;6.15;1.15;;;;;;;;;;5070121;28;20189;-55
2022/04/10 03:51:10;;;;;;;10.10;1.30;;;;;;;;;;5070986;28;20573;-54
2022/04/10 03:53:36;;;;;;;6.45;1.65;;;;;;;;;;5071278;28;20517;-53
2022/04/10 03:56:02;;;;;;;7.88;1.00;;;;;;;;;;5070669;28;20036;-53
2022/04/10 03:58:28;;;;;;;7.40;1.15;;;;;;;;;;5070509;28;20381;-53
2022/04/10 04:00:54;;;;;;;6.32;1.20;;;;;;;;;;5069534;28;20036;-54
2022/04/10 04:03:20;;;;;;;7.50;1.10;;;;;;;;;;5071462;28;20032;-53
2022/04/10 04:05:47;;;;;;;6.32;1.20;;;;;;;;;;5070423;28;20496;-54
2022/04/10 04:08:13;;;;;;;3.90;0.90;;;;;;;;;;5070825;28;20515;-52
2022/04/10 04:10:39;;;;;;;9.68;1.30;;;;;;;;;;5069230;28;20540;-51
2022/04/10 04:13:07;;;;;;;8.10;1.25;;;2.40;99.90;;;;;;5070833;28;20079;-53
2022/04/10 04:15:33;;;;;;;6.53;1.15;;;;;;;;;;5051009;28;20052;-54
2022/04/10 04:18:00;;;;;;;6.30;1.10;;;2.30;99.90;;;;;;5069735;28;20074;-51
2022/04/10 04:20:26;;;;;;;7.10;1.00;;;;;;;;;;5070394;28;20475;-53
2022/04/10 04:22:54;;;;;;;4.85;1.20;;;;;;;;;;5069948;28;20580;-52
2022/04/10 04:25:21;;;;;;;8.93;1.10;;;2.30;99.90;;;;;;5069228;28;20313;-53
2022/04/10 04:27:47;;;;;;;5.82;1.05;;;;;;;;;;5069702;28;20717;-55
2022/04/10 04:30:13;;;;;;;7.63;1.27;;;;;;;;;;5051404;28;20105;-54
2022/04/10 04:32:39;;;;;;;7.78;1.48;;;;;;;;;;5071379;28;20424;-55
2022/04/10 04:35:06;;;;;;;9.27;1.33;;;;;;;;;;5070469;28;20048;-55
2022/04/10 04:37:32;;;;;;;7.57;1.83;;;;;;;;;;5072983;28;20056;-53
2022/04/10 04:39:58;;;;;;;12.35;1.75;;;;;;;;;;5073005;28;21111;-56
2022/04/10 04:42:24;;;;;;;8.38;1.30;;;;;;;;;;5074264;28;20067;-56
2022/04/10 04:44:50;;;;;;;13.23;1.63;;;;;;;;;;5072948;28;20052;-56
2022/04/10 04:47:20;;;;;;;5.63;1.15;;;1.90;99.90;;;;;;5072409;28;20082;-54
2022/04/10 04:49:46;;;;;;;6.57;1.15;;;;;;;;;;5055597;28;20123;-58
2022/04/10 04:52:12;;;;;;;8.77;1.25;;;;;;;;;;5054992;28;20162;-56
2022/04/10 04:54:38;;;;;;;7.00;1.45;;;;;;;;;;5074524;28;20051;-52
2022/04/10 04:57:04;;;;;;;7.43;1.25;;;;;;;;;;5073174;28;20044;-55
2022/04/10 04:59:30;;;;;;;9.15;2.15;;;;;;;;;;5075076;28;20035;-55
2022/04/10 05:01:59;;;;;;;11.20;1.95;;;2.10;99.90;;;;;;5073935;28;20043;-55
2022/04/10 05:04:25;;;;;;;10.68;1.55;;;;;;;;;;5075113;28;20090;-53
2022/04/10 05:06:52;;;;;;;7.88;1.63;;;;;;;;;;5072404;28;20496;-54
2022/04/10 05:09:18;;;;;;;7.97;1.63;;;;;;;;;;5074398;28;20089;-52
2022/04/10 05:11:45;;;;;;;9.38;1.80;;;2.50;99.90;;;;;;5072921;28;20633;-53
2022/04/10 05:14:11;;;;;;;11.20;2.30;;;;;;;;;;5072517;28;20032;-54
2022/04/10 05:16:37;;;;;;;9.07;1.90;;;;;;;;;;5071020;28;20286;-55
2022/04/10 05:19:03;;;;;;;10.38;2.50;;;;;;;;;;5072107;28;20044;-53
2022/04/10 05:21:29;;;;;;;11.30;1.70;;;;;;;;;;5072527;28;20040;-54
2022/04/10 05:23:56;;;;;;;8.85;1.85;;;;;;;;;;5069979;28;20450;-57
2022/04/10 05:26:22;;;;;;;7.20;1.58;;;;;;;;;;5072240;28;20075;-55
2022/04/10 05:28:48;;;;;;;11.50;1.80;;;;;;;;;;5069575;28;20111;-53
2022/04/10 05:31:14;;;;;;;10.98;2.10;;;;;;;;;;5071616;28;20112;-55
2022/04/10 05:33:41;;;;;;;12.45;1.90;;;3.20;99.90;;;;;;5072371;28;20044;-55
2022/04/10 05:36:08;;;;;;;10.50;1.77;;;;;;;;;;5071169;28;20454;-57
2022/04/10 05:38:34;;;;;;;15.60;3.65;;;;;;;;;;5072028;28;20572;-54
2022/04/10 05:41:00;;;;;;;5.72;1.58;;;;;;;;;;5072341;28;20036;-57
2022/04/10 05:43:26;;;;;;;11.35;1.80;;;;;;;;;;5071646;28;20135;-56
2022/04/10 05:45:52;;;;;;;7.45;1.60;;;;;;;;;;5051693;28;20420;-56
2022/04/10 05:48:20;;;;;;;8.68;1.75;;;4.10;99.90;;;;;;5071652;28;20480;-56
2022/04/10 05:50:46;;;;;;;12.10;3.17;;;;;;;;;;5072147;28;20043;-56
2022/04/10 05:53:12;;;;;;;8.88;1.35;;;;;;;;;;5070784;28;20042;-56
2022/04/10 05:55:38;;;;;;;9.13;1.80;;;;;;;;;;5072223;28;20052;-55
2022/04/10 05:58:04;;;;;;;7.55;1.90;;;;;;;;;;5071765;28;20052;-55
2022/04/10 06:00:30;;;;;;;10.30;1.45;;;5.50;99.90;;;;;;5072046;28;20120;-57
2022/04/10 06:03:02;;;;;;;8.55;2.00;;;5.90;99.90;;;;;;5071601;28;20620;-55
2022/04/10 06:05:28;;;;;;;8.50;1.43;;;;;;;;;;5073381;28;20154;-56
2022/04/10 06:07:53;;;;;;;8.07;1.63;;;6.60;99.90;;;;;;5071787;28;20481;-56
2022/04/10 06:10:21;;;;;;;5.75;1.25;;;7.30;99.90;;;;;;5051763;28;20122;-57
2022/04/10 06:12:47;;;;;;;7.65;1.60;;;7.50;99.90;;;;;;5052940;28;20051;-57
2022/04/10 06:15:13;;;;;;;6.28;1.38;;;7.70;99.90;;;;;;5051633;28;20033;-57
2022/04/10 06:17:38;;;;;;;7.43;2.03;;;8.60;99.90;;;;;;5052850;28;20045;-56
2022/04/10 06:20:05;;;;;;;9.25;1.50;;;9.40;99.90;;;;;;5051975;28;20036;-57
2022/04/10 06:22:30;;;;;;;6.93;1.40;;;10.20;99.90;;;;;;5052397;28;20036;-56
2022/04/10 06:24:56;;;;;;;7.45;1.40;;;13.30;99.90;;;;;;5049625;28;20587;-57
2022/04/10 06:27:22;;;;;;;8.75;1.40;;;11.80;99.90;;;;;;5050153;28;20140;-56
2022/04/10 06:29:48;;;;;;;9.13;1.38;;;13.60;99.90;;;;;;5050936;28;20047;-56
2022/04/10 06:32:14;;;;;;;7.80;1.90;;;11.90;99.90;;;;;;5050488;28;20048;-54
2022/04/10 06:34:40;;;;;;;4.65;1.67;;;10.00;99.90;;;;;;5051669;28;20041;-56
2022/04/10 06:37:07;;;;;;;9.10;2.25;;;9.10;99.90;;;;;;5051183;28;20040;-56
2022/04/10 06:39:35;;;;;;;5.18;1.75;;;8.20;99.90;;;;;;5049757;28;20043;-55
2022/04/10 06:42:04;;;;;;;11.40;1.88;;;7.20;99.90;;;;;;5048512;28;20047;-55
2022/04/10 06:44:30;;;;;;;6.55;1.30;;;7.40;99.90;;;;;;5050663;28;20052;-56
2022/04/10 06:46:55;;;;;;;5.43;1.40;;;7.60;99.90;;;;;;5049599;28;20520;-55
2022/04/10 06:49:22;;;;;;;10.18;1.42;;;7.90;99.90;;;;;;5050987;28;20404;-55
2022/04/10 06:51:49;;;;;;;9.30;1.52;;;8.90;99.90;;;;;;5050370;28;20776;-56
2022/04/10 06:54:15;;;;;;;8.20;1.77;;;10.50;99.90;;;;;;5049488;28;20392;-55
2022/04/10 06:56:41;;;;;;;8.63;1.80;;;12.60;99.90;;;;;;5052080;28;20475;-55
2022/04/10 06:59:09;;;;;;;7.70;1.60;;;13.00;99.90;;;;;;5049666;28;20295;-57
2022/04/10 07:01:35;;;;;;;9.15;1.98;;;13.20;99.90;;;;;;5050809;28;20413;-55
2022/04/10 07:04:01;;;;;;;8.73;1.40;;;13.90;99.90;;;;;;5051229;28;20047;-56
2022/04/10 07:06:28;;;;;;;7.70;2.10;;;14.80;99.90;;;;;;5051750;28;20725;-55
2022/04/10 07:08:54;;;;;;;8.75;1.83;;;15.30;99.90;;;;;;5050539;28;20050;-55
2022/04/10 07:11:20;;;;;;;6.65;1.30;;;15.50;99.90;;;;;;5061398;28;20059;-56
2022/04/10 07:13:47;;;;;;;9.38;1.70;;;15.10;99.90;;;;;;5070171;28;20086;-53
2022/04/10 07:16:13;;;;;;;10.30;1.77;;;15.00;99.90;;;;;;5071539;28;20078;-54
2022/04/10 07:18:39;;;;;;;9.70;1.63;;;13.40;99.90;;;;;;5070089;28;20710;-55
2022/04/10 07:21:04;;;;;;;8.05;1.70;;;11.80;99.90;;;;;;5070280;28;20629;-54
2022/04/10 07:23:43;;;;;;;7.78;1.35;;;11.80;99.90;;;;;;5071890;28;20039;-56
2022/04/10 07:26:10;;;;;;;10.43;2.65;;;10.00;99.90;;;;;;5055461;28;20040;-51
2022/04/10 07:28:37;;;;;;;12.75;2.28;;;10.10;99.90;;;;;;5070726;28;20396;-53
2022/04/10 07:31:05;;;;;;;6.03;1.17;;;8.90;99.90;;;;;;5073218;28;20052;-54
2022/04/10 07:33:31;;;;;;;7.13;1.77;;;9.20;99.90;;;;;;5071947;28;20450;-51
2022/04/10 07:35:56;;;;;;;8.20;1.50;;;8.80;99.90;;;;;;5072083;28;20036;-52
2022/04/10 07:38:22;;;;;;;8.80;1.40;;;9.60;99.90;;;;;;5053582;28;20900;-53
2022/04/10 07:40:48;;;;;;;9.35;1.90;;;10.80;99.90;;;;;;5071810;28;20048;-55
2022/04/10 07:43:14;;;;;;;14.35;1.92;;;10.10;99.90;;;;;;5069813;28;20039;-53
2022/04/10 07:48:24;;;;;;;11.80;1.67;;;11.60;99.90;;;;;;5070605;28;20532;-55
2022/04/10 07:50:50;;;;;;;9.88;1.73;;;11.50;99.90;;;;;;5071181;28;20067;-51
2022/04/10 07:53:16;;;;;;;7.63;1.65;;;11.80;99.90;;;;;;5070375;28;20652;-52
2022/04/10 07:55:41;;;;;;;10.88;3.13;;;12.50;99.90;;;;;;5070641;28;20047;-53
2022/04/10 07:58:08;;;;;;;10.48;1.70;;;12.30;99.90;;;;;;5045257;28;20040;-52
2022/04/10 08:00:33;;;;;;;12.90;2.00;;;13.60;99.90;;;;;;5069388;28;20043;-52
2022/04/10 08:02:59;;;;;;;12.48;2.08;;;12.40;99.90;;;;;;5070636;28;20727;-51
2022/04/10 08:05:27;;;;;;;9.38;1.70;;;12.20;99.90;;;;;;5053888;28;20591;-54
2022/04/10 08:07:54;;;;;;;8.68;1.70;;;12.10;99.90;;;;;;5070141;28;20036;-52
2022/04/10 08:10:21;;;;;;;8.30;1.77;;;11.80;99.90;;;;;;5070686;28;20421;-54
2022/04/10 08:12:47;;;;;;;8.13;1.65;;;12.10;99.90;;;;;;5071064;28;20048;-54
2022/04/10 08:15:13;;;;;;;13.27;2.00;;;13.20;99.90;;;;;;5071743;28;20047;-54
2022/04/10 08:17:41;;;;;;;8.75;1.70;;;11.60;99.90;;;;;;5073922;28;20036;-55
2022/04/10 08:20:07;;;;;;;9.00;1.77;;;11.20;99.90;;;;;;5071566;28;20072;-55
2022/04/10 08:22:36;;;;;;;9.88;1.70;;;11.30;99.90;;;;;;5072738;28;20036;-55
2022/04/10 08:25:06;;;;;;;10.55;1.67;;;11.10;99.90;;;;;;5073493;28;20047;-55
2022/04/10 08:27:33;;;;;;;8.27;1.80;;;10.70;99.90;;;;;;5073757;28;20050;-54
2022/04/10 08:29:59;;;;;;;13.90;1.85;;;10.90;99.90;;;;;;5073631;28;20039;-56
2022/04/10 08:32:25;;;;;;;9.52;1.90;;;11.20;99.90;;;;;;5073135;28;20036;-55
2022/04/10 08:34:51;;;;;;;6.15;1.40;;;11.20;99.90;;;;;;5074516;28;20476;-54
2022/04/10 08:37:17;;;;;;;11.05;1.35;;;11.20;99.90;;;;;;5054627;28;20044;-55
2022/04/10 08:39:42;;;;;;;11.55;1.77;;;11.80;99.90;;;;;;5073471;28;20524;-55
2022/04/10 08:42:08;;;;;;;10.55;1.63;;;10.20;99.90;;;;;;5073187;28;20047;-54
2022/04/10 08:44:35;;;;;;;8.45;1.77;;;10.00;99.90;;;;;;5072401;28;20053;-55
2022/04/10 08:47:03;;;;;;;6.53;1.42;;;10.10;99.90;;;;;;5073785;28;20081;-55
2022/04/10 08:49:30;;;;;;;7.05;1.40;;;10.30;99.90;;;;;;5074126;28;20067;-55
2022/04/10 08:51:57;;;;;;;9.45;1.40;;;12.10;99.90;;;;;;5072918;28;20089;-55
2022/04/10 08:54:25;;;;;;;9.90;1.60;;;11.30;99.90;;;;;;5072965;28;20043;-55
2022/04/10 08:56:51;;;;;;;7.78;1.60;;;11.50;99.90;;;;;;5073477;28;20047;-55
2022/04/10 08:59:18;;;;;;;8.38;1.73;;;11.50;99.90;;;;;;5074426;28;20040;-55
2022/04/10 09:01:44;;;;;;;8.55;1.65;;;11.60;99.90;;;;;;5074593;28;20048;-54
2022/04/10 09:04:09;;;;;;;11.05;1.70;;;11.20;99.90;;;;;;5072678;28;20093;-56
2022/04/10 09:06:41;;;;;;;8.65;1.70;;;10.00;99.90;;;;;;5072188;28;20040;-54
2022/04/10 09:09:12;;;;;;;8.23;1.30;;;10.00;99.90;;;;;;5071449;28;20162;-56
2022/04/10 09:11:41;;;;;;;7.32;1.90;;;9.80;99.90;;;;;;5070676;28;20137;-57
2022/04/10 09:14:07;;;;;;;6.10;1.33;;;10.20;99.90;;;;;;5071852;28;20329;-56
2022/04/10 09:16:33;;;;;;;10.68;1.85;;;10.40;99.90;;;;;;5072147;28;20697;-55
2022/04/10 09:19:01;;;;;;;9.82;1.98;;;10.90;99.90;;;;;;5071965;28;20032;-57
2022/04/10 09:21:32;;;;;;;8.95;1.45;;;11.30;99.90;;;;;;5070685;28;20119;-57
2022/04/10 09:24:07;;;;;;;6.97;1.35;;;11.60;99.90;;;;;;5072407;28;20051;-57
2022/04/10 09:26:44;;;;;;;8.65;1.45;;;12.00;99.90;;;;;;5072996;28;20654;-57
2022/04/10 09:29:10;;;;;;;7.15;1.35;;;11.40;99.90;;;;;;5054728;28;20040;-56
2022/04/10 09:31:36;;;;;;;7.10;1.63;;;10.90;99.90;;;;;;5072446;28;20036;-56
2022/04/10 09:34:05;;;;;;;8.63;1.65;;;10.90;99.90;;;;;;5072986;28;20043;-57
2022/04/10 09:36:41;;;;;;;10.38;2.05;;;10.30;99.90;;;;;;5072764;28;20083;-57
2022/04/10 09:39:08;;;;;;;11.40;1.83;;;10.90;99.90;;;;;;5071346;28;20178;-57
2022/04/10 09:41:35;;;;;;;10.25;2.10;;;10.70;99.90;;;;;;5073063;28;20048;-55
2022/04/10 09:44:11;;;;;;;10.02;1.48;;;11.00;99.90;;;;;;5072043;28;20040;-57
2022/04/10 09:46:37;;;;;;;7.90;1.83;;;11.10;99.90;;;;;;5073456;28;20364;-56
2022/04/10 09:49:05;;;;;;;9.55;1.40;;;11.10;99.90;;;;;;5072456;28;20397;-56
2022/04/10 09:51:30;;;;;;;11.63;1.88;;;11.70;99.90;;;;;;5070689;28;20040;-58
2022/04/10 09:54:05;;;;;;;6.00;1.55;;;13.10;99.90;;;;;;5072419;28;20572;-57
2022/04/10 09:56:31;;;;;;;9.13;1.73;;;11.20;99.90;;;;;;5070989;28;20032;-57
2022/04/10 09:58:59;;;;;;;9.05;1.95;;;11.40;99.90;;;;;;5071910;28;20559;-57
2022/04/10 10:01:28;;;;;;;7.32;1.60;;;11.10;99.90;;;;;;5072322;28;20046;-59
2022/04/10 10:03:59;;;;;;;9.73;1.42;;;11.20;99.90;;;;;;5070909;28;20036;-57
2022/04/10 10:06:25;;;;;;;8.55;1.63;;;11.20;99.90;;;;;;5074678;28;20047;-57
2022/04/10 10:08:51;;;;;;;9.50;1.60;;;11.00;99.90;;;;;;5072618;28;20400;-58
2022/04/10 10:11:18;;;;;;;9.65;1.75;;;11.50;99.90;;;;;;5073012;28;20531;-57
2022/04/10 10:13:44;;;;;;;8.77;1.65;;;11.40;99.90;;;;;;5074412;28;20048;-57
2022/04/10 10:16:10;;;;;;;8.45;1.13;;;9.40;99.90;;;;;;5055459;28;20048;-58
2022/04/10 10:18:37;;;;;;;7.72;1.50;;;9.50;99.90;;;;;;5072890;28;20047;-57
2022/04/10 10:21:03;;;;;;;9.52;1.63;;;9.70;99.90;;;;;;5073234;28;20052;-57
2022/04/10 10:23:29;;;;;;;11.50;1.80;;;9.60;99.90;;;;;;5069054;28;20135;-57
2022/04/10 10:26:14;;;;;;;7.72;2.00;;;9.90;99.90;;;;;;5070043;28;20101;-57
2022/04/10 10:29:12;;;;;;;7.07;1.45;;;10.30;99.90;;;;;;5071476;28;20354;-58
2022/04/10 10:32:02;;;;;;;7.15;2.10;;;10.80;99.90;;;;;;5070505;28;20050;-57
2022/04/10 10:34:30;;;;;;;6.85;1.40;;;11.10;99.90;;;;;;5069758;28;20115;-58
2022/04/10 10:36:57;;;;;;;9.10;1.55;;;11.20;99.90;;;;;;5069968;28;20067;-58
2022/04/10 10:39:28;;;;;;;9.00;1.50;;;11.50;99.90;;;;;;5070668;28;20135;-58
2022/04/10 10:41:54;;;;;;;12.48;2.60;;;11.60;99.90;;;;;;5071108;28;20047;-57
2022/04/10 10:44:25;;;;;;;10.77;1.85;;;11.50;99.90;;;;;;5069547;28;20035;-57
2022/04/10 10:47:00;;;;;;;8.70;2.13;;;11.20;99.90;;;;;;5071835;28;20044;-57
2022/04/10 10:49:29;;;;;;;9.05;1.65;;;10.80;99.90;;;;;;5072227;28;20074;-58
2022/04/10 10:51:56;;;;;;;10.25;1.85;;;10.80;99.90;;;;;;5071548;28;20102;-58
2022/04/10 10:54:34;;;;;;;8.25;1.52;;;11.40;99.90;;;;;;5069834;28;20047;-57
2022/04/10 10:57:24;;;;;;;6.18;1.30;;;10.90;99.90;;;;;;5052220;28;20044;-57
2022/04/10 11:00:03;;;;;;;11.27;2.17;;;10.80;99.90;;;;;;5070749;28;20047;-58
2022/04/10 11:02:34;;;;;;;10.65;1.88;;;11.40;99.90;;;;;;5070773;28;20028;-58
2022/04/10 11:05:00;;;;;;;9.45;2.15;;;11.50;99.90;;;;;;5053932;28;20044;-57
2022/04/10 11:07:27;;;;;;;8.63;1.45;;;11.80;99.90;;;;;;5069938;28;20032;-58
2022/04/10 11:09:58;;;;;;;8.32;1.70;;;12.30;99.90;;;;;;5069551;28;20050;-58
2022/04/10 11:12:45;;;;;;;7.65;1.30;;;11.00;99.90;;;;;;5069956;28;20048;-58
2022/04/10 11:15:22;;;;;;;9.40;1.63;;;10.50;99.90;;;;;;5070769;28;20404;-58
2022/04/10 11:17:50;;;;;;;13.52;1.77;;;10.50;99.90;;;;;;5070033;28;20040;-57
2022/04/10 11:20:18;;;;;;;8.23;1.30;;;10.60;99.90;;;;;;5070168;28;20123;-58
2022/04/10 11:22:55;;;;;;;9.15;1.55;;;10.90;99.90;;;;;;5070386;28;20459;-58
2022/04/10 11:25:38;;;;;;;8.23;1.10;;;11.00;99.90;;;;;;5071256;28;20073;-58
2022/04/10 11:28:04;;;;;;;10.77;1.45;;;11.60;99.90;;;;;;5069911;28;20495;-58
2022/04/10 11:30:32;;;;;;;6.03;1.00;;;11.20;99.90;;;;;;5072199;28;20727;-58
2022/04/10 11:32:57;;;;;;;8.50;1.25;;;10.90;99.90;;;;;;5037613;28;20056;-58
2022/04/10 11:35:34;;;;;;;7.35;1.70;;;11.60;99.90;;;;;;5071661;28;20044;-58
2022/04/10 11:38:07;;;;;;;9.15;1.63;;;11.00;99.90;;;;;;5071799;28;20059;-58
2022/04/10 11:40:38;;;;;;;7.10;1.73;;;11.70;99.90;;;;;;5071222;28;20450;-58
2022/04/10 11:43:07;;;;;;;8.07;1.58;;;11.00;99.90;;;;;;5052960;28;20289;-58
2022/04/10 11:45:33;;;;;;;8.32;1.33;;;10.80;99.90;;;;;;5073568;28;20596;-58
2022/04/10 11:48:04;;;;;;;8.02;1.50;;;10.70;99.90;;;;;;5074752;28;20051;-58
2022/04/10 11:50:30;;;;;;;5.50;1.00;;;10.60;99.90;;;;;;5075070;28;20039;-58
2022/04/10 11:53:12;;;;;;;10.60;1.95;;;10.90;99.90;;;;;;5074606;28;20044;-59
2022/04/10 11:55:39;;;;;;;;;;;11.80;99.90;;;;;;5074503;28;20063;-58
2022/04/10 11:58:21;;;;;;;7.43;2.10;;;11.30;99.90;;;;;;5074352;28;19928;-58
2022/04/10 12:01:00;;;;;;;6.43;1.55;;;11.60;99.90;;;;;;5073201;28;20055;-58
2022/04/10 12:03:33;;;;;;;11.15;1.50;;;13.80;99.90;;;;;;5074403;28;20111;-53
2022/04/10 12:05:59;;;;;;;6.30;1.30;;;11.80;99.90;;;;;;5073206;28;20134;-58
2022/04/10 12:08:25;;;;;;;4.32;0.82;;;11.20;99.90;;;;;;5074045;28;20040;-58
2022/04/10 12:10:57;;;;;;;6.28;1.42;;;11.40;99.90;;;;;;5073199;28;20531;-58
2022/04/10 12:13:30;;;;;;;6.25;1.30;;;10.60;99.90;;;;;;5073619;28;20044;-58
2022/04/10 12:16:08;;;;;;;10.30;2.20;;;11.30;99.90;;;;;;5073552;28;20652;-58
2022/04/10 12:18:52;;;;;;;5.72;1.10;;;11.20;99.90;;;;;;5054897;28;20464;-58
2022/04/10 12:21:21;;;;;;;4.78;1.88;;;11.50;99.90;;;;;;5072401;28;20707;-58
2022/04/10 12:24:02;;;;;;;6.88;0.90;;;12.00;99.90;;;;;;5074341;28;20126;-58
2022/04/10 12:26:29;;;;;;;5.65;1.17;;;11.50;99.90;;;;;;5074960;28;20055;-58
2022/04/10 12:28:55;;;;;;;6.20;1.08;;;13.80;99.90;;;;;;5074503;28;20044;-58
2022/04/10 12:31:21;;;;;;;6.00;1.13;;;12.80;99.90;;;;;;5072534;28;20396;-58
2022/04/10 12:33:49;;;;;;;6.75;1.00;;;10.90;99.90;;;;;;5073543;28;20035;-59
2022/04/10 12:36:20;;;;;;;11.43;1.40;;;11.80;99.90;;;;;;5074650;28;20070;-58
2022/04/10 12:38:55;;;;;;;10.20;2.10;;;10.90;99.90;;;;;;5072503;28;20783;-58
2022/04/10 12:41:31;;;;;;;5.90;1.00;;;11.20;99.90;;;;;;5072175;28;22083;-58
2022/04/10 12:44:04;;;;;;;6.03;1.33;;;11.40;99.90;;;;;;5051871;28;20028;-59
2022/04/10 12:46:38;;;;;;;8.18;1.40;;;11.00;99.90;;;;;;5071724;28;20044;-58
2022/04/10 12:49:23;;;;;;;9.25;1.45;;;11.00;99.90;;;;;;5074050;28;20055;-58
2022/04/10 12:51:52;;;;;;;9.85;1.63;;;11.90;99.90;;;;;;5074334;28;20042;-58
2022/04/10 12:54:18;;;;;;;8.20;1.00;;;10.80;99.90;;;;;;5073769;28;20533;-58
2022/04/10 12:56:44;;;;;;;6.95;1.05;;;12.00;99.90;;;;;;5073802;28;20071;-58
2022/04/10 12:59:17;;;;;;;7.53;1.40;;;11.30;99.90;;;;;;5073340;28;20067;-58
2022/04/10 13:01:51;;;;;;;6.30;1.90;;;10.60;99.90;;;;;;5074127;28;20035;-59
2022/04/10 13:04:28;;;;;;;7.38;1.13;;;10.40;99.90;;;;;;5053630;28;20040;-59
2022/04/10 13:06:54;;;;;;;8.50;2.15;;;10.90;99.90;;;;;;5075571;28;20051;-58
2022/04/10 13:09:22;;;;;;;9.80;1.20;;;11.00;99.90;;;;;;5070989;28;20036;-59
2022/04/10 13:11:50;;;;;;;6.03;1.15;;;11.40;99.90;;;;;;5071296;28;20141;-58
2022/04/10 13:14:15;;;;;;;5.70;1.17;;;13.20;99.90;;;;;;5072222;28;20115;-58
2022/04/10 13:16:43;;;;;;;6.22;1.70;;;11.60;99.90;;;;;;5072648;28;20039;-58
2022/04/10 13:19:11;;;;;;;5.65;1.23;;;11.90;99.90;;;;;;5072619;28;20051;-58
2022/04/10 13:21:38;;;;;;;5.28;1.00;;;12.00;99.90;;;;;;5071819;28;20123;-58
2022/04/10 13:24:06;;;;;;;9.55;1.25;;;11.80;99.90;;;;;;5070318;28;20059;-58